Time;durP1;ratioP1;P1;durP2;ratioP2;P2;SDS_P1;SDS_P2;PMS_P1;PMS_P2;Temp;Humidity;BMP_temperature;BMP_pressure;BME280_temperature;BME280_humidity;BME280_pressure;Samples;Min_cycle;Max_cycle;Signal;HPM_P1;HPM_P2
2023/09/30 05:58:12;;;;;;;16.30;8.50;;;;;;;17.48;64.62;100203.37;100528;1293;636785;-63
2023/09/30 06:00:41;;;;;;;23.00;9.40;;;;;;;17.56;64.62;100206.61;103749;1262;136705;-64
2023/09/30 06:03:10;;;;;;;13.70;8.90;;;;;;;17.63;64.46;100205.82;102904;1263;108041;-63
2023/09/30 06:05:41;;;;;;;19.60;8.70;;;;;;;17.69;64.45;100209.19;102643;1263;137044;-64
2023/09/30 06:08:13;;;;;;;17.20;8.90;;;;;;;17.73;64.48;100210.13;103868;1253;107710;-64
2023/09/30 06:10:43;;;;;;;13.80;8.20;;;;;;;17.75;64.67;100213.89;103833;1254;137752;-64
2023/09/30 06:13:10;;;;;;;17.20;7.90;;;;;;;17.73;64.93;100211.73;103816;1250;94392;-66
2023/09/30 06:15:41;;;;;;;14.20;8.40;;;;;;;17.71;65.28;100217.29;103574;1250;106895;-64
2023/09/30 06:18:13;;;;;;;13.00;8.50;;;;;;;17.69;65.54;100220.77;103955;1250;138293;-64
2023/09/30 13:45:48;;;;;;;9.60;2.70;;;;;;;20.71;51.71;100451.89;99744;1294;635241;-69
2023/09/30 14:31:25;;;;;;;10.50;3.30;;;;;;;20.74;47.87;100470.08;99761;1294;635947;-65
2023/09/30 14:55:42;;;;;;;8.90;3.10;;;;;;;19.70;47.83;100491.13;100095;1295;636154;-81
2023/09/30 14:58:09;;;;;;;10.30;3.20;;;;;;;19.58;47.88;100500.20;103638;1265;94465;-80
2023/09/30 15:00:38;;;;;;;9.00;3.00;;;;;;;19.50;48.23;100507.03;103647;1257;137024;-81
2023/09/30 15:03:06;;;;;;;10.10;3.20;;;;;;;19.45;48.24;100508.08;103275;1260;94404;-71
2023/09/30 19:35:54;;;;;;;14.10;4.70;;;;;;;14.60;60.08;100688.62;100427;1295;636086;-81
2023/09/30 19:38:27;;;;;;;17.50;5.20;;;;;;;14.57;60.26;100691.05;103002;1269;94391;-84
2023/09/30 19:41:15;;;;;;;12.20;4.90;;;;;;;14.52;60.31;100690.50;102883;1268;137122;-82
2023/09/30 19:43:54;;;;;;;;;;;;;;;14.49;60.39;100695.20;103001;1269;94780;-82
2023/09/30 19:46:31;;;;;;;10.80;4.90;;;;;;;14.43;60.47;100697.34;103114;1266;107216;-82
2023/09/30 19:49:18;;;;;;;13.90;5.10;;;;;;;14.37;60.64;100701.09;99126;1267;5425286;-82
2023/09/30 19:52:08;;;;;;;18.90;4.80;;;;;;;14.31;60.85;100703.44;103172;1261;107911;-82
2023/09/30 19:54:53;;;;;;;12.50;5.80;;;;;;;14.29;61.15;100701.05;103521;1256;136854;-82
2023/09/30 19:57:41;;;;;;;18.40;7.40;;;;;;;14.32;61.32;100706.68;103640;1256;94536;-82
2023/09/30 20:00:28;;;;;;;11.60;4.40;;;;;;;14.38;61.18;100712.09;103853;1253;137779;-83
2023/09/30 20:03:14;;;;;;;14.70;5.20;;;;;;;14.36;61.08;100715.47;103877;1253;95086;-82
2023/09/30 20:06:01;;;;;;;16.60;4.80;;;;;;;14.34;61.21;100719.38;103802;1253;137257;-83
2023/09/30 20:08:50;;;;;;;14.20;5.60;;;;;;;14.30;61.32;100717.30;103813;1255;109000;-80
2023/09/30 20:11:38;;;;;;;13.50;5.00;;;;;;;14.25;61.28;100717.16;103681;1253;137354;-81
2023/09/30 20:14:19;;;;;;;10.90;4.60;;;;;;;14.19;61.46;100721.92;103856;1256;107267;-82
2023/09/30 20:17:05;;;;;;;;;;;;;;;14.13;61.53;100722.15;103715;1253;137464;-81
2023/09/30 20:19:36;;;;;;;15.30;4.90;;;;;;;14.07;61.72;100722.39;104115;1253;107688;-81
2023/09/30 20:22:14;;;;;;;13.20;5.10;;;;;;;14.03;61.79;100728.86;103755;1253;107283;-81
2023/09/30 20:25:01;;;;;;;15.10;5.30;;;;;;;13.96;61.90;100723.18;104129;1253;137025;-85
2023/09/30 20:27:40;;;;;;;13.30;5.10;;;;;;;13.89;62.10;100722.89;104045;1255;109275;-86
2023/09/30 20:30:28;;;;;;;13.10;5.20;;;;;;;13.85;62.38;100724.30;103730;1253;137897;-84
2023/09/30 20:33:15;;;;;;;13.40;5.20;;;;;;;13.80;62.41;100724.47;104004;1254;107835;-84
2023/09/30 20:35:51;;;;;;;16.30;5.10;;;;;;;13.77;62.55;100722.85;103862;1256;137986;-83
2023/09/30 20:38:40;;;;;;;12.70;4.90;;;;;;;13.72;62.67;100722.35;104632;1253;94206;-83
2023/09/30 20:41:10;;;;;;;20.00;5.10;;;;;;;13.67;62.68;100725.33;103858;1252;138565;-85
2023/09/30 20:43:52;;;;;;;14.90;5.10;;;;;;;13.60;62.78;100720.87;104046;1253;95069;-81
2023/09/30 20:46:19;;;;;;;13.50;5.00;;;;;;;13.56;62.95;100728.19;103989;1253;108195;-82
2023/09/30 20:48:48;;;;;;;19.80;5.70;;;;;;;13.51;62.99;100731.88;103851;1256;138238;-82
2023/09/30 20:51:37;;;;;;;20.30;6.40;;;;;;;13.42;63.16;100733.77;104123;1253;94365;-85
2023/09/30 20:54:17;;;;;;;19.20;5.20;;;;;;;13.37;63.45;100737.60;103777;1253;138568;-82
2023/09/30 20:56:53;;;;;;;18.10;6.30;;;;;;;13.33;63.71;100740.05;103946;1253;95091;-82
2023/09/30 20:59:50;;;;;;;20.20;5.80;;;;;;;13.25;63.76;100740.99;104338;1253;139119;-89
2023/09/30 21:02:37;;;;;;;18.60;5.50;;;;;;;13.19;63.97;100740.15;104022;1256;108896;-90
2023/09/30 21:05:27;;;;;;;14.00;5.60;;;;;;;13.13;64.10;100740.89;103882;1253;138403;-88
2023/09/30 21:08:50;;;;;;;14.60;5.50;;;;;;;13.07;64.17;100737.93;104028;1253;107558;-88
2023/09/30 21:12:02;;;;;;;16.90;6.10;;;;;;;13.02;64.40;100739.15;103848;1253;137940;-86
2023/09/30 21:15:04;;;;;;;18.20;5.80;;;;;;;12.96;64.47;100740.07;103919;1253;108149;-89
2023/09/30 21:18:16;;;;;;;15.90;5.80;;;;;;;12.91;64.68;100745.44;103985;1255;137066;-89
2023/09/30 21:21:07;;;;;;;17.20;6.70;;;;;;;12.88;64.82;100751.84;104138;1257;94375;-91
2023/09/30 21:24:17;;;;;;;17.90;6.20;;;;;;;12.83;64.93;100758.11;103764;1258;138313;-89
2023/09/30 21:27:30;;;;;;;13.70;6.20;;;;;;;12.78;65.03;100763.55;103770;1260;95312;-88
2023/09/30 21:30:44;;;;;;;13.80;5.10;;;;;;;12.73;65.28;100765.42;103853;1258;138906;-87
2023/09/30 21:33:44;;;;;;;;;;;;;;;;;;;;;
2023/09/30 21:36:35;;;;;;;17.40;5.80;;;;;;;12.66;65.56;100775.07;103543;1256;138592;-88
2023/09/30 21:39:24;;;;;;;17.80;5.10;;;;;;;12.61;65.64;100776.13;103708;1259;108729;-88
2023/09/30 21:42:22;;;;;;;14.90;5.30;;;;;;;12.58;65.77;100779.34;103662;1256;138066;-87
2023/09/30 21:45:31;;;;;;;15.80;5.40;;;;;;;12.53;65.74;100774.09;103549;1256;110908;-86
2023/09/30 21:48:19;;;;;;;16.40;5.80;;;;;;;12.49;65.96;100775.28;103500;1255;138006;-86
2023/09/30 21:51:07;;;;;;;15.60;5.80;;;;;;;12.45;66.18;100772.45;103694;1255;94373;-86
2023/09/30 21:53:55;;;;;;;16.90;5.50;;;;;;;12.44;66.22;100769.36;103602;1256;137869;-88
2023/09/30 21:56:33;;;;;;;24.20;6.70;;;;;;;12.41;66.58;100764.38;103928;1257;95210;-88
2023/09/30 21:59:21;;;;;;;13.20;5.80;;;;;;;12.39;66.71;100765.83;103900;1259;138090;-86
2023/09/30 22:02:12;;;;;;;16.40;6.40;;;;;;;12.36;66.61;100762.42;103922;1259;107726;-87
2023/09/30 22:05:00;;;;;;;18.90;6.20;;;;;;;12.33;66.69;100763.40;103722;1258;138625;-85
2023/09/30 22:08:09;;;;;;;17.80;5.90;;;;;;;12.30;66.73;100760.36;103796;1257;106923;-86
2023/09/30 22:10:57;;;;;;;14.70;5.10;;;;;;;12.27;66.87;100764.65;103767;1258;95118;-90
2023/09/30 22:13:46;;;;;;;20.20;6.20;;;;;;;12.25;66.97;100767.67;103677;1256;108588;-87
2023/09/30 22:16:35;;;;;;;14.60;5.80;;;;;;;12.23;66.99;100762.69;103955;1260;106628;-86
2023/09/30 22:19:24;;;;;;;17.30;6.30;;;;;;;12.20;67.10;100759.79;103632;1256;224095;-86
2023/09/30 22:22:11;;;;;;;18.70;6.20;;;;;;;12.16;67.23;100756.27;103710;1258;110414;-85
2023/09/30 22:25:00;;;;;;;18.10;5.80;;;;;;;12.14;67.33;100755.64;103534;1256;138537;-88
2023/09/30 22:27:48;;;;;;;17.00;5.80;;;;;;;12.12;67.45;100758.66;103728;1255;109173;-86
2023/09/30 22:30:58;;;;;;;14.90;6.00;;;;;;;12.06;67.68;100754.13;103763;1258;138626;-87
2023/09/30 22:33:46;;;;;;;15.60;6.10;;;;;;;12.01;67.72;100753.06;103825;1261;94908;-85
2023/09/30 22:36:56;;;;;;;21.70;6.40;;;;;;;11.97;67.94;100755.59;103387;1254;139281;-87
2023/09/30 22:39:45;;;;;;;19.50;6.60;;;;;;;11.93;68.04;100758.35;103707;1255;95543;-88
2023/09/30 22:42:34;;;;;;;18.40;5.60;;;;;;;11.88;68.17;100758.50;103668;1258;139005;-87
2023/09/30 22:45:22;;;;;;;15.40;6.10;;;;;;;11.85;68.34;100755.45;103818;1256;109897;-88
2023/09/30 22:48:10;;;;;;;19.00;6.10;;;;;;;11.84;68.51;100754.94;103620;1254;139034;-87
2023/09/30 22:50:58;;;;;;;16.00;6.50;;;;;;;11.82;68.49;100756.90;103651;1254;108390;-89
2023/09/30 22:53:48;;;;;;;21.20;7.10;;;;;;;11.79;68.65;100758.92;103621;1256;138173;-88
2023/09/30 22:56:36;;;;;;;13.10;6.30;;;;;;;11.77;68.60;100762.62;103664;1260;107303;-88
2023/09/30 22:59:24;;;;;;;17.50;7.10;;;;;;;11.74;68.66;100766.34;103632;1259;138515;-86
2023/09/30 23:02:12;;;;;;;16.30;6.40;;;;;;;11.70;68.78;100775.02;103841;1254;95038;-86
2023/09/30 23:05:01;;;;;;;16.90;6.40;;;;;;;11.65;68.97;100770.78;103800;1256;108715;-86
2023/09/30 23:07:49;;;;;;;17.70;6.60;;;;;;;11.64;69.13;100775.52;103792;1257;95174;-89
2023/09/30 23:10:37;;;;;;;20.30;6.90;;;;;;;11.61;69.09;100770.39;103818;1255;107790;-86
2023/09/30 23:13:40;;;;;;;20.50;6.30;;;;;;;11.59;69.23;100771.85;103613;1258;137107;-88
2023/09/30 23:16:29;;;;;;;19.40;6.40;;;;;;;11.56;69.37;100772.11;103918;1258;94467;-87
2023/09/30 23:19:19;;;;;;;19.70;6.80;;;;;;;11.48;69.42;100771.61;103692;1256;138645;-87
2023/09/30 23:22:10;;;;;;;20.10;7.00;;;;;;;11.45;69.49;100781.08;104042;1257;95163;-86
2023/09/30 23:24:58;;;;;;;17.00;7.10;;;;;;;11.39;69.59;100772.39;103612;1259;137964;-87
2023/09/30 23:27:49;;;;;;;24.90;7.40;;;;;;;11.36;69.81;100777.19;103828;1258;110115;-88
2023/09/30 23:30:38;;;;;;;17.60;6.50;;;;;;;11.32;69.86;100771.54;103763;1258;138719;-89
2023/09/30 23:33:26;;;;;;;19.50;7.10;;;;;;;11.28;70.02;100777.91;103791;1260;108875;-86
2023/09/30 23:36:12;;;;;;;;;;;;;;;11.28;70.01;100786.23;103777;1254;138635;-88
2023/09/30 23:39:00;;;;;;;19.80;7.70;;;;;;;11.25;70.25;100789.64;103807;1260;108569;-87
2023/09/30 23:41:48;;;;;;;;;;;;;;;11.24;70.37;100788.63;103510;1258;138947;-87
2023/09/30 23:44:29;;;;;;;17.20;6.60;;;;;;;11.22;70.46;100787.65;103814;1259;95470;-87
2023/09/30 23:47:17;;;;;;;18.60;7.00;;;;;;;11.18;70.43;100783.41;103654;1254;138880;-87
2023/09/30 23:50:08;;;;;;;19.40;7.00;;;;;;;11.12;70.52;100780.40;103764;1259;95557;-88
2023/09/30 23:52:57;;;;;;;17.80;7.40;;;;;;;11.07;70.62;100780.37;103853;1254;109181;-86
2023/09/30 23:55:40;;;;;;;16.60;6.70;;;;;;;11.03;70.77;100779.27;103839;1257;107773;-86
2023/09/30 23:58:22;;;;;;;21.40;7.10;;;;;;;11.00;70.95;100782.65;103792;1257;95149;-89
